createdAt,value
2023-04-17T00:01:56.726Z,35.90
2023-04-17T00:04:25.783Z,35.90
2023-04-17T00:06:54.276Z,35.70
2023-04-17T00:09:24.039Z,35.30
2023-04-17T00:11:52.347Z,35.50
2023-04-17T00:14:20.630Z,35.50
2023-04-17T00:16:49.073Z,35.20
2023-04-17T00:19:17.506Z,35.10
2023-04-17T00:21:45.807Z,35.40
2023-04-17T00:24:14.365Z,35.20
2023-04-17T00:26:44.096Z,34.40
2023-04-17T00:29:12.715Z,34.20
2023-04-17T00:31:41.224Z,34.20
2023-04-17T00:34:09.563Z,34.20
2023-04-17T00:36:37.866Z,34.00
2023-04-17T00:39:06.117Z,34.00
2023-04-17T00:41:34.412Z,34.00
2023-04-17T00:44:04.056Z,34.20
2023-04-17T00:46:32.494Z,33.70
2023-04-17T00:49:00.960Z,33.60
2023-04-17T00:51:29.352Z,32.70
2023-04-17T00:53:57.606Z,32.90
2023-04-17T00:56:25.938Z,32.60
2023-04-17T00:58:54.215Z,32.80
2023-04-17T01:01:24.009Z,33.00
2023-04-17T01:03:52.766Z,32.80
2023-04-17T01:06:21.541Z,32.70
2023-04-17T01:08:49.892Z,32.70
2023-04-17T01:11:18.140Z,32.80
2023-04-17T01:13:47.492Z,32.40
2023-04-17T01:16:15.924Z,31.30
2023-04-17T01:18:48.483Z,31.80
2023-04-17T01:21:16.935Z,31.20
2023-04-17T01:23:46.983Z,31.20
2023-04-17T01:26:21.007Z,31.20
2023-04-17T01:28:54.027Z,31.20
2023-04-17T01:31:22.505Z,31.30
2023-04-17T01:33:51.002Z,31.20
2023-04-17T01:36:19.490Z,30.30
2023-04-17T01:38:47.830Z,29.70
2023-04-17T01:41:16.194Z,29.20
2023-04-17T01:43:47.560Z,29.50
2023-04-17T01:46:16.034Z,29.40
2023-04-17T01:48:44.414Z,28.80
2023-04-17T01:51:12.733Z,28.50
2023-04-17T01:53:41.506Z,28.10
2023-04-17T01:56:09.786Z,27.30
2023-04-17T01:58:38.069Z,27.50
2023-04-17T02:01:07.943Z,27.80
2023-04-17T02:03:36.404Z,27.20
2023-04-17T02:06:05.326Z,27.80
2023-04-17T02:08:34.202Z,27.40
2023-04-17T02:11:02.525Z,28.10
2023-04-17T02:13:30.886Z,28.10
2023-04-17T02:15:59.199Z,28.30
2023-04-17T02:18:29.023Z,27.70
2023-04-17T02:20:57.325Z,27.90
2023-04-17T02:23:25.735Z,27.80
2023-04-17T02:25:54.345Z,27.30
2023-04-17T02:28:22.656Z,28.00
2023-04-17T02:30:50.962Z,28.00
2023-04-17T02:33:19.449Z,28.10
2023-04-17T02:35:49.415Z,27.90
2023-04-17T02:38:17.818Z,27.50
2023-04-17T02:40:46.251Z,28.20
2023-04-17T02:43:14.648Z,28.20
2023-04-17T02:45:42.901Z,27.80
2023-04-17T02:48:11.371Z,27.50
2023-04-17T02:50:39.698Z,27.20
2023-04-17T02:53:09.548Z,27.50
2023-04-17T02:55:37.920Z,27.60
2023-04-17T02:58:06.308Z,28.00
2023-04-17T03:00:34.805Z,27.40
2023-04-17T03:03:03.852Z,27.50
2023-04-17T03:05:32.358Z,26.70
2023-04-17T03:08:00.822Z,26.70
2023-04-17T03:10:30.630Z,26.70
2023-04-17T03:12:58.962Z,26.60
2023-04-17T03:15:27.289Z,27.40
2023-04-17T03:17:55.816Z,27.60
2023-04-17T03:20:24.405Z,27.70
2023-04-17T03:22:52.791Z,27.10
2023-04-17T03:25:21.648Z,27.00
2023-04-17T03:27:51.530Z,27.40
2023-04-17T03:30:19.935Z,26.90
2023-04-17T03:32:48.198Z,26.60
2023-04-17T03:35:16.623Z,27.40
2023-04-17T03:37:45.154Z,27.50
2023-04-17T03:40:14.111Z,27.40
2023-04-17T03:42:42.484Z,27.40
2023-04-17T03:45:12.967Z,27.20
2023-04-17T03:47:41.866Z,26.90
2023-04-17T03:50:11.282Z,26.50
2023-04-17T03:52:39.767Z,26.80
2023-04-17T03:55:09.520Z,26.50
2023-04-17T03:57:37.911Z,26.50
2023-04-17T04:00:10.540Z,26.40
2023-04-17T04:02:40.436Z,26.40
2023-04-17T04:05:09.723Z,26.50
2023-04-17T04:07:38.118Z,26.50
2023-04-17T04:10:08.021Z,26.40
2023-04-17T04:12:36.383Z,26.40
2023-04-17T04:15:05.752Z,26.80
2023-04-17T04:17:34.069Z,26.80
2023-04-17T04:20:05.049Z,27.20
2023-04-17T04:22:34.819Z,27.40
2023-04-17T04:25:03.276Z,27.60
2023-04-17T04:27:32.950Z,27.50
2023-04-17T04:30:02.015Z,27.20
2023-04-17T04:32:30.841Z,27.10
2023-04-17T04:35:02.025Z,27.40
2023-04-17T04:37:32.149Z,27.50
2023-04-17T04:40:10.210Z,27.60
2023-04-17T04:42:39.667Z,28.00
2023-04-17T04:45:09.324Z,28.10
2023-04-17T04:47:37.869Z,28.20
2023-04-17T04:50:07.534Z,28.40
2023-04-17T04:52:37.294Z,28.00
2023-04-17T04:55:06.788Z,28.20
2023-04-17T04:57:35.096Z,28.00
2023-04-17T05:00:06.268Z,28.50
2023-04-17T05:02:34.736Z,28.70
2023-04-17T05:05:04.237Z,28.60
2023-04-17T05:07:32.624Z,28.50
2023-04-17T05:10:02.351Z,28.30
2023-04-17T05:12:30.680Z,28.00
2023-04-17T05:14:59.106Z,28.30
2023-04-17T05:17:27.450Z,28.30
2023-04-17T05:19:55.752Z,28.00
2023-04-17T05:22:24.136Z,27.60
2023-04-17T05:24:52.533Z,27.80
2023-04-17T05:27:22.308Z,27.90
2023-04-17T05:29:50.641Z,27.70
2023-04-17T05:32:19.096Z,27.80
2023-04-17T05:34:47.941Z,27.90
2023-04-17T05:37:16.211Z,27.00
2023-04-17T05:39:44.503Z,26.80
2023-04-17T05:42:12.929Z,26.50
2023-04-17T05:44:42.622Z,26.10
2023-04-17T05:47:10.972Z,26.40
2023-04-17T05:49:39.490Z,26.70
2023-04-17T05:52:07.841Z,26.50
2023-04-17T05:54:36.290Z,26.20
2023-04-17T05:57:04.740Z,25.60
2023-04-17T05:59:33.052Z,25.00
2023-04-17T06:02:02.995Z,24.70
2023-04-17T06:04:32.383Z,24.20
2023-04-17T06:07:02.528Z,24.30
2023-04-17T06:09:30.856Z,25.00
2023-04-17T06:11:59.279Z,25.50
2023-04-17T06:14:27.685Z,25.80
2023-04-17T06:16:56.107Z,26.80
2023-04-17T06:19:25.785Z,26.80
2023-04-17T06:21:54.089Z,26.90
2023-04-17T06:24:22.419Z,26.90
2023-04-17T06:26:50.723Z,26.90
2023-04-17T06:29:19.239Z,26.20
2023-04-17T06:31:47.547Z,25.30
2023-04-17T06:34:15.844Z,25.10
2023-04-17T06:36:45.549Z,26.00
2023-04-17T06:39:14.118Z,25.50
2023-04-17T06:41:42.570Z,25.00
2023-04-17T06:44:11.148Z,24.90
2023-04-17T06:46:39.833Z,25.00
2023-04-17T06:49:08.209Z,24.70
2023-04-17T06:51:36.482Z,24.70
2023-04-17T06:54:06.164Z,24.10
2023-04-17T06:56:34.453Z,23.40
2023-04-17T06:59:03.253Z,24.00
2023-04-17T07:01:32.243Z,24.70
2023-04-17T07:04:00.935Z,24.30
2023-04-17T07:06:31.566Z,23.90
2023-04-17T07:08:59.964Z,23.10
2023-04-17T07:11:30.692Z,23.20
2023-04-17T07:13:59.018Z,23.80
2023-04-17T07:16:27.310Z,24.80
2023-04-17T07:18:55.678Z,25.60
2023-04-17T07:21:23.985Z,25.30
2023-04-17T07:23:52.291Z,23.70
2023-04-17T07:26:20.707Z,23.40
2023-04-17T07:28:50.559Z,23.40
2023-04-17T07:31:18.881Z,22.80
2023-04-17T07:33:47.410Z,21.60
2023-04-17T07:36:15.788Z,21.10
2023-04-17T07:38:44.141Z,21.40
2023-04-17T07:41:13.786Z,21.70
2023-04-17T07:43:42.236Z,21.60
2023-04-17T07:46:12.003Z,21.40
2023-04-17T07:48:41.090Z,22.20
2023-04-17T07:51:09.617Z,23.10
2023-04-17T07:53:38.992Z,23.50
2023-04-17T07:56:12.234Z,23.20
2023-04-17T07:58:42.116Z,22.10
2023-04-17T08:01:11.888Z,22.50
2023-04-17T08:03:41.738Z,24.10
2023-04-17T08:06:10.410Z,22.30
2023-04-17T08:08:38.801Z,19.90
2023-04-17T08:11:07.300Z,16.90
2023-04-17T08:13:35.714Z,16.80
2023-04-17T08:16:04.265Z,11.80
2023-04-17T08:18:33.980Z,11.40
2023-04-17T08:21:04.088Z,6.00
2023-04-17T08:23:32.437Z,7.50
2023-04-17T08:26:00.781Z,10.10
2023-04-17T08:28:29.165Z,9.70
2023-04-17T08:30:57.547Z,6.50
2023-04-17T08:33:27.073Z,3.00
2023-04-17T08:35:56.818Z,5.00
2023-04-17T08:38:25.277Z,4.90
2023-04-17T08:40:53.561Z,6.70
2023-04-17T08:43:21.867Z,9.50
2023-04-17T08:45:53.880Z,10.90
2023-04-17T08:48:22.684Z,12.10
2023-04-17T08:50:52.432Z,10.80
2023-04-17T08:53:22.108Z,9.60
2023-04-17T08:55:50.539Z,8.20
2023-04-17T08:58:21.867Z,8.30
2023-04-17T09:00:50.481Z,4.00
2023-04-17T09:03:19.004Z,2.90
2023-04-17T09:05:48.451Z,2.30
2023-04-17T09:08:20.840Z,3.90
2023-04-17T09:10:51.755Z,3.90
2023-04-17T09:13:21.899Z,2.90
2023-04-17T09:16:04.965Z,2.80
2023-04-17T09:18:34.309Z,1.00
2023-04-17T09:21:03.260Z,1.00
2023-04-17T09:23:32.682Z,1.00
2023-04-17T09:26:09.317Z,1.20
2023-04-17T09:28:39.564Z,1.20
2023-04-17T09:31:25.564Z,1.00
2023-04-17T09:33:58.299Z,1.30
2023-04-17T09:36:27.830Z,1.00
2023-04-17T09:38:57.284Z,1.00
2023-04-17T09:41:28.770Z,1.00
2023-04-17T09:44:01.097Z,1.00
2023-04-17T09:46:38.033Z,1.00
2023-04-17T09:49:11.872Z,1.00
2023-04-17T09:51:40.212Z,1.00
2023-04-17T09:54:10.222Z,1.00
2023-04-17T09:56:41.252Z,1.00
2023-04-17T09:59:09.814Z,1.00
2023-04-17T10:01:39.953Z,1.00
2023-04-17T10:04:08.820Z,1.00
2023-04-17T10:06:37.770Z,1.00
2023-04-17T10:09:06.160Z,1.00
2023-04-17T10:11:37.352Z,1.00
2023-04-17T10:14:11.960Z,1.00
2023-04-17T10:16:42.748Z,1.00
2023-04-17T10:19:32.777Z,1.00
2023-04-17T10:22:40.995Z,1.00
2023-04-17T10:25:22.256Z,1.00
2023-04-17T10:27:58.797Z,1.00
2023-04-17T10:30:54.429Z,1.00
2023-04-17T10:33:25.788Z,1.00
2023-04-17T10:35:54.391Z,1.00
2023-04-17T10:38:37.551Z,1.00
2023-04-17T10:41:09.391Z,1.00
2023-04-17T10:43:41.817Z,1.00
2023-04-17T10:46:12.806Z,1.00
2023-04-17T10:48:47.699Z,1.00
2023-04-17T10:51:41.542Z,1.00
2023-04-17T10:54:13.642Z,1.00
2023-04-17T10:56:42.717Z,1.00
2023-04-17T10:59:12.381Z,1.00
2023-04-17T11:01:58.254Z,1.00
2023-04-17T11:04:28.815Z,1.00
2023-04-17T11:06:57.205Z,1.00
2023-04-17T11:09:26.545Z,1.00
2023-04-17T11:11:55.518Z,1.00
2023-04-17T11:14:24.349Z,1.00
2023-04-17T11:16:53.974Z,1.00
2023-04-17T11:19:23.269Z,1.00
2023-04-17T11:21:53.530Z,1.00
2023-04-17T11:24:25.262Z,1.00
2023-04-17T11:26:53.617Z,1.00
2023-04-17T11:29:22.858Z,1.00
2023-04-17T11:31:53.824Z,1.00
2023-04-17T11:34:22.258Z,1.00
2023-04-17T11:36:51.179Z,1.00
2023-04-17T11:39:19.873Z,1.00
2023-04-17T11:41:48.493Z,1.00
2023-04-17T11:44:18.831Z,1.00
2023-04-17T11:46:51.645Z,1.00
2023-04-17T11:49:27.473Z,1.00
2023-04-17T11:51:58.004Z,1.00
2023-04-17T11:54:29.308Z,1.00
2023-04-17T11:57:02.241Z,1.00
2023-04-17T11:59:34.928Z,1.00
2023-04-17T12:02:03.662Z,1.00
2023-04-17T12:04:34.923Z,1.00
2023-04-17T12:07:03.892Z,1.00
2023-04-17T12:09:32.569Z,1.00
2023-04-17T12:12:01.356Z,1.00
2023-04-17T12:14:29.773Z,1.00
2023-04-17T12:16:58.139Z,1.00
2023-04-17T12:19:27.393Z,1.00
2023-04-17T12:21:59.110Z,1.00
2023-04-17T12:24:27.607Z,1.00
2023-04-17T12:26:56.131Z,1.00
2023-04-17T12:29:40.410Z,1.00
2023-04-17T12:32:12.332Z,1.00
2023-04-17T12:34:41.069Z,1.00
2023-04-17T12:37:11.568Z,1.00
2023-04-17T12:39:39.939Z,1.00
2023-04-17T12:42:08.250Z,1.00
2023-04-17T12:44:36.610Z,1.00
2023-04-17T12:47:05.007Z,1.00
2023-04-17T12:49:33.324Z,1.00
2023-04-17T12:52:03.702Z,1.00
2023-04-17T12:54:33.793Z,1.00
2023-04-17T12:57:02.759Z,1.00
2023-04-17T12:59:31.216Z,1.00
2023-04-17T13:01:59.584Z,1.00
2023-04-17T13:04:28.308Z,1.00
2023-04-17T13:06:56.798Z,1.00
2023-04-17T13:09:25.264Z,1.00
2023-04-17T13:11:54.913Z,1.00
2023-04-17T13:14:23.226Z,1.00
2023-04-17T13:16:51.640Z,1.00
2023-04-17T13:19:20.153Z,1.00
2023-04-17T13:21:48.550Z,1.00
2023-04-17T13:24:16.815Z,1.00
2023-04-17T13:26:45.159Z,1.00
2023-04-17T13:29:17.044Z,1.00
2023-04-17T13:31:46.878Z,1.00
2023-04-17T13:34:15.213Z,1.00
2023-04-17T13:36:44.936Z,1.00
2023-04-17T13:39:14.254Z,1.00
2023-04-17T13:41:43.148Z,1.00
2023-04-17T13:44:11.495Z,1.00
2023-04-17T13:46:41.547Z,1.00
2023-04-17T13:49:10.065Z,1.00
2023-04-17T13:51:38.465Z,1.00
2023-04-17T13:54:07.087Z,1.00
2023-04-17T13:56:35.352Z,1.00
2023-04-17T13:59:05.264Z,1.00
2023-04-17T14:01:33.603Z,1.00
2023-04-17T14:04:03.518Z,1.00
2023-04-17T14:06:33.463Z,1.00
2023-04-17T14:09:01.804Z,1.00
2023-04-17T14:11:38.884Z,1.00
2023-04-17T14:14:07.140Z,1.00
2023-04-17T14:16:35.619Z,1.00
2023-04-17T14:21:40.768Z,1.00
2023-04-17T14:24:09.038Z,1.00
2023-04-17T14:26:38.137Z,1.00
2023-04-17T14:29:06.519Z,1.00
2023-04-17T14:31:34.850Z,1.00
2023-04-17T14:34:04.739Z,1.00
2023-04-17T14:36:33.068Z,1.00
2023-04-17T14:39:01.399Z,1.00
2023-04-17T14:41:33.756Z,1.00
2023-04-17T14:44:02.367Z,1.00
2023-04-17T14:46:30.855Z,1.00
2023-04-17T14:48:59.243Z,1.00
2023-04-17T14:51:30.403Z,1.00
2023-04-17T14:53:59.069Z,1.00
2023-04-17T14:56:27.395Z,1.00
2023-04-17T14:58:55.808Z,1.00
2023-04-17T15:01:24.140Z,1.00
2023-04-17T15:03:52.806Z,1.00
2023-04-17T15:06:21.458Z,1.70
2023-04-17T15:08:51.353Z,4.90
2023-04-17T15:11:19.821Z,2.90
2023-04-17T15:13:48.258Z,2.10
2023-04-17T15:16:16.587Z,3.80
2023-04-17T15:18:45.153Z,3.80
2023-04-17T15:21:13.485Z,1.00
2023-04-17T15:23:41.870Z,2.10
2023-04-17T15:26:11.529Z,1.20
2023-04-17T15:28:40.491Z,3.80
2023-04-17T15:31:08.878Z,1.00
2023-04-17T15:33:37.424Z,1.00
2023-04-17T15:36:05.984Z,2.30
2023-04-17T15:38:34.259Z,1.10
2023-04-17T15:41:03.530Z,1.00
2023-04-17T15:43:33.287Z,1.50
2023-04-17T15:46:03.434Z,1.00
2023-04-17T15:48:31.799Z,4.00
2023-04-17T15:51:00.352Z,4.70
2023-04-17T15:53:28.680Z,5.70
2023-04-17T15:55:56.982Z,6.60
2023-04-17T15:58:25.236Z,9.40
2023-04-17T16:00:54.921Z,9.70
2023-04-17T16:03:23.552Z,8.20
2023-04-17T16:05:53.946Z,9.70
2023-04-17T16:08:22.573Z,10.70
2023-04-17T16:10:50.884Z,13.80
2023-04-17T16:13:19.243Z,15.80
2023-04-17T16:15:49.143Z,15.90
2023-04-17T16:18:18.793Z,16.30
2023-04-17T16:20:47.049Z,17.60
2023-04-17T16:23:15.345Z,18.00
2023-04-17T16:25:43.638Z,18.20
2023-04-17T16:28:11.914Z,19.20
2023-04-17T16:30:40.209Z,19.00
2023-04-17T16:33:08.480Z,18.40
2023-04-17T16:35:38.138Z,16.90
2023-04-17T16:38:06.408Z,17.10
2023-04-17T16:40:34.760Z,18.70
2023-04-17T16:43:02.988Z,18.40
2023-04-17T16:45:31.258Z,15.90
2023-04-17T16:47:59.614Z,14.70
2023-04-17T16:50:28.152Z,15.80
2023-04-17T16:52:57.832Z,17.90
2023-04-17T16:55:26.274Z,14.90
2023-04-17T16:57:55.551Z,11.70
2023-04-17T17:00:24.205Z,11.70
2023-04-17T17:02:52.569Z,11.70
2023-04-17T17:05:21.343Z,12.90
2023-04-17T17:07:49.834Z,15.30
2023-04-17T17:10:19.653Z,15.70
2023-04-17T17:12:47.948Z,15.70
2023-04-17T17:15:16.245Z,15.70
2023-04-17T17:17:44.608Z,16.40
2023-04-17T17:20:13.621Z,17.80
2023-04-17T17:22:41.887Z,19.70
2023-04-17T17:25:10.740Z,21.50
2023-04-17T17:27:40.433Z,23.60
2023-04-17T17:30:10.356Z,26.10
2023-04-17T17:32:38.675Z,27.50
2023-04-17T17:35:08.256Z,27.40
2023-04-17T17:37:36.575Z,28.10
2023-04-17T17:40:05.905Z,28.60
2023-04-17T17:42:34.295Z,29.10
2023-04-17T17:45:04.222Z,29.20
2023-04-17T17:47:32.572Z,29.00
2023-04-17T17:50:00.895Z,29.80
2023-04-17T17:52:29.217Z,30.00
2023-04-17T17:54:57.566Z,30.20
2023-04-17T17:57:29.230Z,30.50
2023-04-17T18:00:06.407Z,31.40
2023-04-17T18:02:34.810Z,31.50
2023-04-17T18:05:03.290Z,31.40
2023-04-17T18:07:31.614Z,32.30
2023-04-17T18:09:59.867Z,32.90
2023-04-17T18:12:28.285Z,32.80
2023-04-17T18:14:56.764Z,32.80
2023-04-17T18:17:26.533Z,33.30
2023-04-17T18:19:54.870Z,33.90
2023-04-17T18:22:23.303Z,34.00
2023-04-17T18:24:54.012Z,34.20
2023-04-17T18:27:22.328Z,34.40
2023-04-17T18:29:50.566Z,35.10
2023-04-17T18:32:18.894Z,35.40
2023-04-17T18:34:49.230Z,35.40
2023-04-17T18:37:18.283Z,35.70
2023-04-17T18:39:46.717Z,35.90
2023-04-17T18:42:15.028Z,36.30
2023-04-17T18:44:43.340Z,36.30
2023-04-17T18:47:11.743Z,36.30
2023-04-17T18:49:40.117Z,36.40
2023-04-17T18:52:09.911Z,36.40
2023-04-17T18:54:38.230Z,36.30
2023-04-17T18:57:06.633Z,36.30
2023-04-17T18:59:34.977Z,36.40
2023-04-17T19:02:03.266Z,36.40
2023-04-17T19:04:31.593Z,36.40
2023-04-17T19:06:59.904Z,36.40
2023-04-17T19:09:29.637Z,36.40
2023-04-17T19:11:58.557Z,36.70
2023-04-17T19:14:27.391Z,36.40
2023-04-17T19:16:55.745Z,36.70
2023-04-17T19:19:24.106Z,37.30
2023-04-17T19:21:52.348Z,37.50
2023-04-17T19:24:20.660Z,37.50
2023-04-17T19:26:50.333Z,37.10
2023-04-17T19:29:18.643Z,36.90
2023-04-17T19:31:46.956Z,37.60
2023-04-17T19:34:15.246Z,37.10
2023-04-17T19:36:44.133Z,37.20
2023-04-17T19:39:12.706Z,37.10
2023-04-17T19:41:42.146Z,37.20
2023-04-17T19:44:11.880Z,37.10
2023-04-17T19:46:40.153Z,37.30
2023-04-17T19:49:08.406Z,37.30
2023-04-17T19:51:36.707Z,37.30
2023-04-17T19:54:05.116Z,37.30
2023-04-17T19:56:33.407Z,36.60
2023-04-17T19:59:03.012Z,36.30
2023-04-17T20:01:32.902Z,36.30
2023-04-17T20:04:01.253Z,36.30
2023-04-17T20:06:29.542Z,36.30
2023-04-17T20:08:58.526Z,36.30
2023-04-17T20:11:26.778Z,36.30
2023-04-17T20:13:55.126Z,35.50
2023-04-17T20:16:24.009Z,35.50
2023-04-17T20:18:56.450Z,35.40
2023-04-17T20:21:24.801Z,34.90
2023-04-17T20:23:54.990Z,34.80
2023-04-17T20:26:23.325Z,34.90
2023-04-17T20:28:51.612Z,34.70
2023-04-17T20:31:19.929Z,34.00
2023-04-17T20:33:48.310Z,34.20
2023-04-17T20:36:18.021Z,34.40
2023-04-17T20:38:46.495Z,34.70
2023-04-17T20:41:14.717Z,34.40
2023-04-17T20:43:42.993Z,33.80
2023-04-17T20:46:11.319Z,33.40
2023-04-17T20:48:39.543Z,33.40
2023-04-17T20:51:07.889Z,33.40
2023-04-17T20:53:37.494Z,32.90
2023-04-17T20:56:06.119Z,33.20
2023-04-17T20:58:34.422Z,32.00
2023-04-17T21:01:03.127Z,32.10
2023-04-17T21:03:31.845Z,32.40
2023-04-17T21:06:00.328Z,32.40
2023-04-17T21:08:28.677Z,32.70
2023-04-17T21:10:58.312Z,32.00
2023-04-17T21:13:26.715Z,31.40
2023-04-17T21:15:55.051Z,31.40
2023-04-17T21:18:23.415Z,31.50
2023-04-17T21:20:51.933Z,31.40
2023-04-17T21:23:20.429Z,31.40
2023-04-17T21:25:51.667Z,31.40
2023-04-17T21:28:21.405Z,31.10
2023-04-17T21:30:49.788Z,31.40
2023-04-17T21:33:18.229Z,31.50
2023-04-17T21:35:46.803Z,30.60
2023-04-17T21:38:15.215Z,30.40
2023-04-17T21:40:50.858Z,29.80
2023-04-17T21:43:21.208Z,29.20
2023-04-17T21:45:49.979Z,29.20
2023-04-17T21:48:18.500Z,29.20
2023-04-17T21:50:46.770Z,29.20
2023-04-17T21:53:15.049Z,29.20
2023-04-17T21:55:43.388Z,29.00
2023-04-17T21:58:11.889Z,29.20
2023-04-17T22:00:41.547Z,29.60
2023-04-17T22:03:09.964Z,29.50
2023-04-17T22:05:38.307Z,29.60
2023-04-17T22:08:07.217Z,29.80
2023-04-17T22:10:35.546Z,29.90
2023-04-17T22:13:03.950Z,30.00
2023-04-17T22:15:32.193Z,30.00
2023-04-17T22:18:01.901Z,30.20
2023-04-17T22:20:30.198Z,29.90
2023-04-17T22:22:58.485Z,29.90
2023-04-17T22:25:26.794Z,30.00
2023-04-17T22:27:55.122Z,30.00
2023-04-17T22:30:23.792Z,30.30
2023-04-17T22:32:52.184Z,30.20
2023-04-17T22:35:21.885Z,30.20
2023-04-17T22:37:50.390Z,30.50
2023-04-17T22:40:18.914Z,30.80
2023-04-17T22:42:47.176Z,30.30
2023-04-17T22:45:15.532Z,30.20
2023-04-17T22:47:43.973Z,30.20
2023-04-17T22:50:14.364Z,29.80
2023-04-17T22:52:44.139Z,29.80
2023-04-17T22:55:12.629Z,30.00
2023-04-17T22:57:40.993Z,29.20
2023-04-17T23:00:11.432Z,29.40
2023-04-17T23:02:39.798Z,29.10
2023-04-17T23:05:09.611Z,28.60
2023-04-17T23:07:37.897Z,28.50
2023-04-17T23:10:08.844Z,28.00
2023-04-17T23:12:37.129Z,27.70
2023-04-17T23:15:08.237Z,27.70
2023-04-17T23:17:36.559Z,27.70
2023-04-17T23:20:05.249Z,26.90
2023-04-17T23:22:33.563Z,26.90
2023-04-17T23:25:01.964Z,26.90
2023-04-17T23:27:32.026Z,27.10
2023-04-17T23:30:00.439Z,26.90
2023-04-17T23:32:28.804Z,26.90
2023-04-17T23:34:57.124Z,26.90
2023-04-17T23:37:25.533Z,26.90
2023-04-17T23:39:53.912Z,26.90
2023-04-17T23:42:22.214Z,26.80
2023-04-17T23:44:51.901Z,26.30
2023-04-17T23:47:20.529Z,25.90
2023-04-17T23:49:48.836Z,26.00
2023-04-17T23:52:18.896Z,26.30
2023-04-17T23:54:47.199Z,26.70
2023-04-17T23:57:15.468Z,26.40
2023-04-17T23:59:43.791Z,26.70
